createdAt,value
2018-10-01T00:00:03.474Z,99959.64
2018-10-01T00:02:34.452Z,99960.16
2018-10-01T00:05:05.982Z,99964.92
2018-10-01T00:07:36.968Z,99960.45
2018-10-01T00:10:07.750Z,99959.44
2018-10-01T00:12:38.765Z,99955.39
2018-10-01T00:15:09.599Z,99959.20
2018-10-01T00:17:40.964Z,99954.70
2018-10-01T00:20:16.409Z,99868.11
2018-10-01T00:22:49.788Z,99950.84
2018-10-01T00:25:19.664Z,99948.14
2018-10-01T00:27:49.535Z,99940.81
2018-10-01T00:30:19.385Z,99940.61
2018-10-01T00:32:49.182Z,99927.52
2018-10-01T00:35:19.090Z,99921.52
2018-10-01T00:37:49.320Z,99927.88
2018-10-01T00:40:19.208Z,99925.85
2018-10-01T00:42:49.788Z,99918.73
2018-10-01T00:45:20.630Z,99920.36
2018-10-01T00:47:51.508Z,99914.08
2018-10-01T00:50:22.391Z,99917.03
2018-10-01T00:52:52.885Z,99917.31
2018-10-01T00:55:23.549Z,99910.90
2018-10-01T00:57:53.445Z,99908.11
2018-10-01T01:00:24.926Z,99907.38
2018-10-01T01:02:55.738Z,99898.89
2018-10-01T01:05:26.550Z,99901.30
2018-10-01T01:07:58.294Z,99895.93
2018-10-01T01:10:28.670Z,99910.55
2018-10-01T01:12:59.684Z,99906.38
2018-10-01T01:15:30.452Z,99882.48
2018-10-01T01:18:02.113Z,99903.84
2018-10-01T01:20:32.719Z,99894.89
2018-10-01T01:23:03.668Z,99891.91
2018-10-01T01:25:34.495Z,99890.16
2018-10-01T01:28:06.153Z,99889.48
2018-10-01T01:30:36.681Z,99886.07
2018-10-01T01:33:07.642Z,99884.44
2018-10-01T01:35:38.493Z,99881.93
2018-10-01T01:38:09.449Z,99883.12
2018-10-01T01:40:40.734Z,99884.19
2018-10-01T01:43:11.621Z,99885.50
2018-10-01T01:45:42.434Z,99884.00
2018-10-01T01:48:13.822Z,99882.47
2018-10-01T01:50:43.609Z,99880.59
2018-10-01T01:53:14.788Z,99883.06
2018-10-01T01:55:45.789Z,99877.73
2018-10-01T01:58:16.618Z,99877.05
2018-10-01T02:00:47.474Z,99867.75
2018-10-01T02:03:18.431Z,99861.10
2018-10-01T02:05:49.702Z,99861.59
2018-10-01T02:08:20.586Z,99852.90
2018-10-01T02:10:51.381Z,99851.74
2018-10-01T02:13:22.976Z,99847.44
2018-10-01T02:15:53.602Z,99843.61
2018-10-01T02:18:24.575Z,99839.58
2018-10-01T02:20:55.836Z,99843.24
2018-10-01T02:23:26.700Z,99841.58
2018-10-01T02:25:57.668Z,99832.53
2018-10-01T02:28:28.649Z,99839.81
2018-10-01T02:30:59.548Z,99832.47
2018-10-01T02:33:30.500Z,99828.48
2018-10-01T02:36:01.801Z,99822.18
2018-10-01T02:38:34.037Z,99827.33
2018-10-01T02:41:04.098Z,99817.34
2018-10-01T02:43:34.943Z,99815.73
2018-10-01T02:46:05.804Z,99815.86
2018-10-01T02:48:36.877Z,99810.25
2018-10-01T02:51:07.917Z,99806.62
2018-10-01T02:53:43.922Z,99802.33
2018-10-01T02:56:14.139Z,99798.25
2018-10-01T02:58:44.657Z,99794.83
2018-10-01T03:01:14.630Z,99793.09
2018-10-01T03:03:44.548Z,99788.17
2018-10-01T03:06:14.851Z,99791.62
2018-10-01T03:08:44.698Z,99789.95
2018-10-01T03:11:15.555Z,99785.66
2018-10-01T03:13:46.418Z,99661.32
2018-10-01T03:16:18.133Z,99779.45
2018-10-01T03:18:48.679Z,99783.06
2018-10-01T03:21:19.744Z,99781.31
2018-10-01T03:23:50.611Z,99765.42
2018-10-01T03:26:21.574Z,99771.90
2018-10-01T03:28:52.517Z,99766.22
2018-10-01T03:31:23.606Z,99750.65
2018-10-01T03:33:53.910Z,99768.73
2018-10-01T03:36:24.851Z,99759.03
2018-10-01T03:38:55.691Z,99758.53
2018-10-01T03:41:26.569Z,99752.30
2018-10-01T03:43:57.518Z,99750.51
2018-10-01T03:46:28.874Z,99754.72
2018-10-01T03:48:59.664Z,99754.59
2018-10-01T03:51:30.621Z,99756.05
2018-10-01T03:54:01.437Z,99758.60
2018-10-01T03:56:32.810Z,99754.19
2018-10-01T03:59:02.892Z,99754.53
2018-10-01T04:01:33.189Z,99755.84
2018-10-01T04:04:03.847Z,99749.27
2018-10-01T04:06:34.620Z,99757.28
2018-10-01T04:09:07.316Z,99751.48
2018-10-01T04:11:37.794Z,99749.47
2018-10-01T04:14:08.600Z,99748.78
2018-10-01T04:16:38.808Z,99750.03
2018-10-01T04:19:09.732Z,99745.03
2018-10-01T04:21:40.530Z,99728.69
2018-10-01T04:24:11.422Z,99743.08
2018-10-01T04:26:42.669Z,99737.27
2018-10-01T04:29:14.889Z,99739.84
2018-10-01T04:31:46.092Z,99726.95
2018-10-01T04:34:16.756Z,99735.23
2018-10-01T04:36:46.881Z,99733.85
2018-10-01T04:39:18.637Z,99742.52
2018-10-01T04:41:48.818Z,99737.88
2018-10-01T04:44:19.782Z,99737.80
2018-10-01T04:46:50.633Z,99736.88
2018-10-01T04:49:22.219Z,99738.00
2018-10-01T04:51:52.961Z,99737.42
2018-10-01T04:54:23.803Z,99738.55
2018-10-01T04:56:54.709Z,99734.25
2018-10-01T04:59:25.641Z,99739.78
2018-10-01T05:01:56.526Z,99740.75
2018-10-01T05:04:27.498Z,99736.88
2018-10-01T05:06:58.433Z,99739.39
2018-10-01T05:09:29.831Z,99740.44
2018-10-01T05:12:00.892Z,99741.52
2018-10-01T05:14:32.365Z,99735.30
2018-10-01T05:17:02.578Z,99738.31
2018-10-01T05:19:33.532Z,99738.51
2018-10-01T05:22:04.493Z,99735.76
2018-10-01T05:24:35.698Z,99737.42
2018-10-01T05:27:06.629Z,99738.59
2018-10-01T05:29:37.800Z,99746.83
2018-10-01T05:32:08.743Z,99742.77
2018-10-01T05:34:39.700Z,99732.70
2018-10-01T05:37:10.575Z,99733.55
2018-10-01T05:39:41.457Z,99732.59
2018-10-01T05:42:12.358Z,99725.73
2018-10-01T05:44:43.857Z,99733.09
2018-10-01T05:47:14.600Z,99727.83
2018-10-01T05:49:45.992Z,99730.88
2018-10-01T05:52:16.557Z,99728.94
2018-10-01T05:54:47.520Z,99727.28
2018-10-01T05:57:18.498Z,99729.02
2018-10-01T05:59:49.522Z,99710.22
2018-10-01T06:02:20.882Z,99715.16
2018-10-01T06:04:51.742Z,99721.13
2018-10-01T06:07:22.598Z,99720.70
2018-10-01T06:09:53.523Z,99716.77
2018-10-01T06:12:23.731Z,99720.78
2018-10-01T06:14:54.974Z,99725.05
2018-10-01T06:17:25.774Z,99593.44
2018-10-01T06:19:56.907Z,99718.88
2018-10-01T06:22:27.573Z,99699.98
2018-10-01T06:24:58.611Z,99710.59
2018-10-01T06:27:29.496Z,99716.05
2018-10-01T06:30:00.447Z,99716.44
2018-10-01T06:32:31.335Z,99726.83
2018-10-01T06:35:02.789Z,99717.31
2018-10-01T06:37:33.627Z,99720.61
2018-10-01T06:40:04.956Z,99717.64
2018-10-01T06:42:35.588Z,99720.42
2018-10-01T06:45:06.608Z,99718.09
2018-10-01T06:47:37.479Z,99715.92
2018-10-01T06:50:08.940Z,99715.06
2018-10-01T06:52:39.562Z,99697.60
2018-10-01T06:55:10.474Z,99710.17
2018-10-01T06:57:41.798Z,99716.13
2018-10-01T07:00:12.967Z,99707.12
2018-10-01T07:02:43.848Z,99708.45
2018-10-01T07:05:14.796Z,99711.84
2018-10-01T07:07:45.601Z,99706.66
2018-10-01T07:10:16.434Z,99707.73
2018-10-01T07:12:47.714Z,99703.19
2018-10-01T07:15:18.676Z,99708.05
2018-10-01T07:17:49.477Z,99707.11
2018-10-01T07:20:20.397Z,99705.83
2018-10-01T07:22:51.745Z,99698.23
2018-10-01T07:25:22.606Z,99703.22
2018-10-01T07:27:52.446Z,99700.44
2018-10-01T07:30:23.925Z,99703.59
2018-10-01T07:32:54.545Z,99702.60
2018-10-01T07:35:25.848Z,99706.13
2018-10-01T07:37:56.614Z,99679.11
2018-10-01T07:40:27.526Z,99691.20
2018-10-01T07:42:58.400Z,99685.53
2018-10-01T07:45:29.782Z,99688.00
2018-10-01T07:48:00.552Z,99691.26
2018-10-01T07:50:31.917Z,99690.20
2018-10-01T07:53:02.604Z,99694.14
2018-10-01T07:55:33.233Z,99697.25
2018-10-01T07:58:03.714Z,99695.05
2018-10-01T08:00:34.958Z,99697.67
2018-10-01T08:03:05.578Z,99701.89
2018-10-01T08:05:36.381Z,99689.58
2018-10-01T08:08:07.767Z,99694.69
2018-10-01T08:10:38.682Z,99688.30
2018-10-01T08:13:09.434Z,99691.69
2018-10-01T08:15:41.023Z,99693.20
2018-10-01T08:18:11.573Z,99687.17
2018-10-01T08:20:42.410Z,99685.73
2018-10-01T08:23:13.361Z,99681.38
2018-10-01T08:25:43.901Z,99675.33
2018-10-01T08:28:14.539Z,99666.56
2018-10-01T08:30:45.577Z,99684.75
2018-10-01T08:33:16.365Z,99687.91
2018-10-01T08:35:47.818Z,99687.22
2018-10-01T08:38:18.677Z,99688.50
2018-10-01T08:40:49.716Z,99693.49
2018-10-01T08:43:20.522Z,99683.46
2018-10-01T08:45:51.668Z,99689.70
2018-10-01T08:48:23.233Z,99690.81
2018-10-01T08:51:02.475Z,99679.83
2018-10-01T08:53:42.830Z,99681.50
2018-10-01T08:56:12.501Z,99679.56
2018-10-01T08:58:42.568Z,99682.27
2018-10-01T09:01:12.356Z,99675.98
2018-10-01T09:03:42.391Z,99684.36
2018-10-01T09:06:12.515Z,99677.30
2018-10-01T09:08:42.164Z,99679.72
2018-10-01T09:11:11.974Z,99680.84
2018-10-01T09:13:42.429Z,99677.09
2018-10-01T09:16:12.225Z,99676.50
2018-10-01T09:18:41.806Z,99673.81
2018-10-01T09:21:11.480Z,99675.38
2018-10-01T09:23:41.065Z,99671.45
2018-10-01T09:26:11.234Z,99674.15
2018-10-01T09:28:41.025Z,99675.81
2018-10-01T09:31:11.280Z,99677.75
2018-10-01T09:33:41.127Z,99669.20
2018-10-01T09:36:11.084Z,99674.45
2018-10-01T09:38:40.743Z,99671.66
2018-10-01T09:41:12.294Z,99666.48
2018-10-01T09:43:42.531Z,99670.02
2018-10-01T09:46:13.192Z,99665.38
2018-10-01T09:48:44.285Z,99665.28
2018-10-01T09:51:15.454Z,99660.86
2018-10-01T09:53:47.236Z,99661.98
2018-10-01T09:56:17.526Z,99658.98
2018-10-01T09:58:48.180Z,99661.56
2018-10-01T10:01:19.459Z,99659.51
2018-10-01T10:03:50.354Z,99659.00
2018-10-01T10:06:21.337Z,99658.19
2018-10-01T10:08:52.442Z,99669.60
2018-10-01T10:11:23.281Z,99664.86
2018-10-01T10:13:54.558Z,99666.95
2018-10-01T10:16:25.442Z,99661.23
2018-10-01T10:18:56.074Z,99664.27
2018-10-01T10:21:27.434Z,99659.59
2018-10-01T10:23:58.514Z,99661.09
2018-10-01T10:26:29.272Z,99660.17
2018-10-01T10:29:00.454Z,99661.98
2018-10-01T10:31:32.230Z,99659.16
2018-10-01T10:34:02.506Z,99658.67
2018-10-01T10:36:32.201Z,99650.33
2018-10-01T10:39:03.533Z,99646.22
2018-10-01T10:41:34.457Z,99656.17
2018-10-01T10:44:05.590Z,99649.33
2018-10-01T10:46:36.413Z,99652.98
2018-10-01T10:49:07.466Z,99650.16
2018-10-01T10:51:38.635Z,99656.59
2018-10-01T10:54:09.228Z,99657.41
2018-10-01T10:56:40.520Z,99661.46
2018-10-01T10:59:11.234Z,99652.77
2018-10-01T11:01:43.263Z,99657.34
2018-10-01T11:04:13.571Z,99659.49
2018-10-01T11:06:44.249Z,99658.00
2018-10-01T11:09:15.418Z,99653.75
2018-10-01T11:11:46.580Z,99650.91
2018-10-01T11:14:17.626Z,99645.58
2018-10-01T11:16:48.705Z,99647.08
2018-10-01T11:19:20.549Z,99639.86
2018-10-01T11:21:50.603Z,99636.13
2018-10-01T11:24:21.367Z,99640.36
2018-10-01T11:26:52.620Z,99637.33
2018-10-01T11:29:23.418Z,99645.33
2018-10-01T11:31:54.340Z,99641.39
2018-10-01T11:34:25.260Z,99639.73
2018-10-01T11:36:56.193Z,99638.75
2018-10-01T11:39:27.481Z,99640.29
2018-10-01T11:41:58.615Z,99643.89
2018-10-01T11:44:29.195Z,99640.67
2018-10-01T11:47:00.864Z,99632.34
2018-10-01T11:49:31.724Z,99637.00
2018-10-01T11:52:02.468Z,99636.44
2018-10-01T11:54:34.184Z,99622.56
2018-10-01T11:57:04.546Z,99629.77
2018-10-01T11:59:35.317Z,99630.85
2018-10-01T12:02:06.592Z,99632.44
2018-10-01T12:04:37.201Z,99626.13
2018-10-01T12:07:08.542Z,99633.79
2018-10-01T12:09:39.660Z,99626.77
2018-10-01T12:12:10.414Z,99628.69
2018-10-01T12:14:41.815Z,99631.23
2018-10-01T12:17:12.541Z,99629.03
2018-10-01T12:19:43.202Z,99630.75
2018-10-01T12:22:15.147Z,99633.44
2018-10-01T12:24:45.491Z,99643.86
2018-10-01T12:27:16.294Z,99639.59
2018-10-01T12:29:47.519Z,99641.37
2018-10-01T12:32:18.462Z,99643.11
2018-10-01T12:34:49.161Z,99635.16
2018-10-01T12:37:42.583Z,99623.91
2018-10-01T12:40:12.503Z,99619.59
2018-10-01T12:42:42.507Z,99621.78
2018-10-01T12:45:12.583Z,99615.09
2018-10-01T12:47:42.422Z,99610.37
2018-10-01T12:50:12.438Z,99613.22
2018-10-01T12:52:42.330Z,99617.42
2018-10-01T12:55:12.321Z,99619.80
2018-10-01T12:57:42.215Z,99621.56
2018-10-01T13:00:12.530Z,99614.70
2018-10-01T13:02:42.150Z,99610.45
2018-10-01T13:05:12.561Z,99610.80
2018-10-01T13:07:50.551Z,99618.17
2018-10-01T13:10:20.364Z,99618.25
2018-10-01T13:12:50.261Z,99620.28
2018-10-01T13:15:20.492Z,99622.89
2018-10-01T13:17:50.548Z,99624.02
2018-10-01T13:20:20.528Z,99620.77
2018-10-01T13:22:50.105Z,99621.31
2018-10-01T13:25:20.399Z,99622.14
2018-10-01T13:27:50.277Z,99622.98
2018-10-01T13:30:20.133Z,99621.33
2018-10-01T13:32:49.905Z,99618.91
2018-10-01T13:35:21.226Z,99621.68
2018-10-01T13:37:51.335Z,99617.78
2018-10-01T13:40:20.945Z,99522.31
2018-10-01T13:42:50.675Z,99630.23
2018-10-01T13:45:20.336Z,99626.67
2018-10-01T13:47:50.211Z,99628.64
2018-10-01T13:50:19.910Z,99629.22
2018-10-01T13:52:50.484Z,99624.95
2018-10-01T13:55:21.866Z,99628.04
2018-10-01T13:57:52.453Z,99627.81
2018-10-01T14:00:22.250Z,99636.22
2018-10-01T14:02:53.788Z,99639.65
2018-10-01T14:05:24.499Z,99634.34
2018-10-01T14:07:55.185Z,99638.76
2018-10-01T14:10:26.643Z,99632.95
2018-10-01T14:12:57.264Z,99635.89
2018-10-01T14:15:28.238Z,99631.61
2018-10-01T14:17:59.679Z,99640.50
2018-10-01T14:20:30.422Z,99644.25
2018-10-01T14:23:01.714Z,99643.52
2018-10-01T14:25:32.468Z,99651.25
2018-10-01T14:28:24.854Z,99585.28
2018-10-01T14:30:54.638Z,99652.48
2018-10-01T14:33:24.487Z,99644.38
2018-10-01T14:35:54.525Z,99652.11
2018-10-01T14:38:24.528Z,99656.52
2018-10-01T14:40:54.514Z,99656.33
2018-10-01T14:43:24.706Z,99664.27
2018-10-01T14:45:54.316Z,99665.91
2018-10-01T14:48:31.356Z,99667.55
2018-10-01T14:51:01.629Z,99669.08
2018-10-01T14:53:31.713Z,99677.86
2018-10-01T14:56:01.760Z,99683.83
2018-10-01T14:58:31.720Z,99679.50
2018-10-01T15:01:01.720Z,99675.16
2018-10-01T15:03:31.965Z,99686.30
2018-10-01T15:06:02.611Z,99687.21
2018-10-01T15:08:32.909Z,99696.84
2018-10-01T15:11:03.011Z,99702.13
2018-10-01T15:13:33.314Z,99706.69
2018-10-01T15:16:03.504Z,99713.02
2018-10-01T15:18:34.038Z,99717.38
2018-10-01T15:21:04.218Z,99718.57
2018-10-01T15:23:34.260Z,99721.45
2018-10-01T15:26:04.066Z,99721.30
2018-10-01T15:28:34.892Z,99725.37
2018-10-01T15:31:04.782Z,99731.31
2018-10-01T15:33:34.494Z,99739.50
2018-10-01T15:36:04.368Z,99742.25
2018-10-01T15:38:34.259Z,99754.86
2018-10-01T15:41:03.951Z,99745.58
2018-10-01T15:43:33.711Z,99762.23
2018-10-01T15:46:03.398Z,99761.94
2018-10-01T15:48:33.896Z,99764.27
2018-10-01T15:51:04.498Z,99764.65
2018-10-01T15:53:35.388Z,99768.28
2018-10-01T15:56:06.545Z,99770.05
2018-10-01T15:58:37.425Z,99772.37
2018-10-01T16:01:08.961Z,99778.77
2018-10-01T16:03:39.669Z,99781.69
2018-10-01T16:06:10.630Z,99789.00
2018-10-01T16:08:41.543Z,99786.38
2018-10-01T16:11:11.256Z,99786.85
2018-10-01T16:13:43.038Z,99794.11
2018-10-01T16:16:13.725Z,99799.16
2018-10-01T16:18:44.759Z,99791.61
2018-10-01T16:21:15.489Z,99791.61
2018-10-01T16:23:46.357Z,99796.34
2018-10-01T16:26:17.758Z,99797.42
2018-10-01T16:28:48.580Z,99785.30
2018-10-01T16:31:19.366Z,99815.00
2018-10-01T16:33:50.854Z,99818.55
2018-10-01T16:36:21.692Z,99809.84
2018-10-01T16:38:52.450Z,99823.94
2018-10-01T16:41:23.657Z,99823.51
2018-10-01T16:43:54.632Z,99829.64
2018-10-01T16:46:25.323Z,99839.18
2018-10-01T16:48:56.729Z,99840.70
2018-10-01T16:51:27.414Z,99830.92
2018-10-01T16:53:58.774Z,99864.13
2018-10-01T16:56:29.954Z,99860.49
2018-10-01T16:59:00.623Z,99863.67
2018-10-01T17:01:31.324Z,99864.84
2018-10-01T17:04:02.885Z,99867.02
2018-10-01T17:06:34.209Z,99861.44
2018-10-01T17:09:06.091Z,99873.71
2018-10-01T17:11:35.913Z,99872.88
2018-10-01T17:14:06.708Z,99879.75
2018-10-01T17:16:37.466Z,99878.78
2018-10-01T17:19:08.605Z,99880.08
2018-10-01T17:21:39.348Z,99881.22
2018-10-01T17:24:10.876Z,99882.38
2018-10-01T17:26:41.632Z,99889.66
2018-10-01T17:29:12.461Z,99876.20
2018-10-01T17:31:43.641Z,99895.32
2018-10-01T17:34:14.440Z,99892.41
2018-10-01T17:36:46.525Z,99904.16
2018-10-01T17:39:16.411Z,99905.66
2018-10-01T17:41:47.762Z,99906.64
2018-10-01T17:44:18.736Z,99903.00
2018-10-01T17:46:49.554Z,99907.48
2018-10-01T17:49:22.395Z,99911.34
2018-10-01T17:51:52.467Z,99912.34
2018-10-01T17:54:22.533Z,99905.86
2018-10-01T17:56:53.598Z,99909.92
2018-10-01T17:59:24.425Z,99919.70
2018-10-01T18:01:55.866Z,99920.84
2018-10-01T18:04:26.705Z,99896.13
2018-10-01T18:06:57.740Z,99916.69
2018-10-01T18:09:29.447Z,99923.32
2018-10-01T18:11:59.464Z,99924.14
2018-10-01T18:14:30.424Z,99927.66
2018-10-01T18:17:01.887Z,99927.14
2018-10-01T18:19:32.774Z,99938.27
2018-10-01T18:22:04.949Z,99935.28
2018-10-01T18:24:35.357Z,99935.96
2018-10-01T18:27:05.366Z,99925.48
2018-10-01T18:29:35.629Z,99928.66
2018-10-01T18:32:06.647Z,99930.45
2018-10-01T18:34:37.681Z,99936.29
2018-10-01T18:37:08.644Z,99930.64
2018-10-01T18:39:40.491Z,99930.52
2018-10-01T18:42:10.676Z,99932.02
2018-10-01T18:44:41.739Z,99936.68
2018-10-01T18:47:12.804Z,99931.89
2018-10-01T18:49:43.844Z,99935.70
2018-10-01T18:52:14.895Z,99936.91
2018-10-01T18:54:45.766Z,99941.39
2018-10-01T18:57:16.836Z,99938.41
2018-10-01T18:59:47.811Z,99937.41
2018-10-01T19:02:19.503Z,99941.92
2018-10-01T19:04:49.532Z,99949.05
2018-10-01T19:07:20.730Z,99944.73
2018-10-01T19:12:26.668Z,99951.23
2018-10-01T19:14:57.388Z,99949.05
2018-10-01T19:17:27.536Z,99955.03
2018-10-01T19:39:56.073Z,99965.48
2018-10-01T19:42:25.902Z,99963.00
2018-10-01T19:44:55.861Z,99972.00
2018-10-01T19:47:25.920Z,99968.86
2018-10-01T19:49:55.898Z,99970.67
2018-10-01T19:52:25.740Z,99971.02
2018-10-01T19:54:55.696Z,99969.33
2018-10-01T19:57:25.863Z,99970.98
2018-10-01T19:59:55.833Z,99981.46
2018-10-01T20:02:25.795Z,99983.27
2018-10-01T20:04:55.756Z,99977.63
2018-10-01T20:07:25.704Z,99984.94
2018-10-01T20:09:55.806Z,99980.09
2018-10-01T20:12:25.681Z,99989.91
2018-10-01T20:14:55.919Z,99988.24
2018-10-01T20:17:25.902Z,99996.54
2018-10-01T20:19:55.907Z,100004.16
2018-10-01T20:22:25.939Z,99998.19
2018-10-01T20:24:56.003Z,100005.31
2018-10-01T20:27:26.155Z,100013.60
2018-10-01T20:29:56.024Z,100012.80
2018-10-01T20:32:25.893Z,100008.80
2018-10-01T20:34:55.979Z,100007.47
2018-10-01T20:37:25.990Z,100000.98
2018-10-01T20:39:55.837Z,100002.48
2018-10-01T20:42:25.812Z,99998.98
2018-10-01T20:44:55.861Z,100004.80
2018-10-01T20:47:25.816Z,100002.95
2018-10-01T20:49:56.007Z,100002.28
2018-10-01T20:52:26.237Z,100015.88
2018-10-01T20:54:56.042Z,100019.04
2018-10-01T20:57:25.831Z,100014.73
2018-10-01T20:59:55.753Z,100017.70
2018-10-01T21:02:26.693Z,100012.88
2018-10-01T21:04:56.723Z,100013.20
2018-10-01T21:07:26.698Z,100015.38
2018-10-01T21:09:56.677Z,100017.03
2018-10-01T21:12:26.788Z,100013.05
2018-10-01T21:14:56.739Z,100000.77
2018-10-01T21:17:27.633Z,99999.58
2018-10-01T21:19:57.646Z,100005.39
2018-10-01T21:22:27.919Z,100010.02
2018-10-01T21:24:57.951Z,100005.52
2018-10-01T21:27:27.942Z,100011.66
2018-10-01T21:29:57.866Z,100017.12
2018-10-01T21:32:27.663Z,100012.98
2018-10-01T21:34:57.786Z,100014.59
2018-10-01T21:37:27.649Z,100023.87
2018-10-01T21:40:03.306Z,100022.73
2018-10-01T21:42:33.173Z,100023.93
2018-10-01T21:45:03.443Z,100028.06
2018-10-01T21:47:34.124Z,100030.70
2018-10-01T21:50:04.264Z,100037.84
2018-10-01T21:52:34.209Z,100037.84
2018-10-01T21:55:04.084Z,100037.80
2018-10-01T21:57:34.907Z,100036.44
2018-10-01T22:00:05.260Z,100043.10
2018-10-01T22:02:35.005Z,100048.09
2018-10-01T22:05:04.911Z,100051.06
2018-10-01T22:07:35.193Z,100053.04
2018-10-01T22:10:05.611Z,100036.59
2018-10-01T22:12:35.765Z,100039.59
2018-10-01T22:15:06.206Z,100048.69
2018-10-01T22:17:36.206Z,100057.95
2018-10-01T22:20:06.202Z,100061.11
2018-10-01T22:22:36.092Z,100059.91
2018-10-01T22:25:06.184Z,100056.23
2018-10-01T22:27:36.039Z,100061.52
2018-10-01T22:30:06.044Z,100070.48
2018-10-01T22:32:36.114Z,100070.84
2018-10-01T22:35:05.952Z,100068.05
2018-10-01T22:37:35.901Z,100064.20
2018-10-01T22:40:06.074Z,100062.08
2018-10-01T22:42:35.976Z,100064.37
2018-10-01T22:45:06.376Z,100060.22
2018-10-01T22:47:36.420Z,100061.83
2018-10-01T22:50:07.133Z,100068.13
2018-10-01T22:52:36.997Z,100066.73
2018-10-01T22:55:07.193Z,100073.23
2018-10-01T22:57:37.297Z,100068.38
2018-10-01T23:00:07.167Z,100066.06
2018-10-01T23:02:37.231Z,100073.88
2018-10-01T23:05:07.572Z,100072.02
2018-10-01T23:07:37.804Z,100074.33
2018-10-01T23:10:07.836Z,100071.34
2018-10-01T23:12:37.792Z,100079.62
2018-10-01T23:15:08.100Z,100075.97
2018-10-01T23:17:37.973Z,100080.62
2018-10-01T23:20:08.054Z,100076.61
2018-10-01T23:22:37.993Z,100018.92
2018-10-01T23:25:07.907Z,100083.38
2018-10-01T23:27:37.822Z,100083.52
2018-10-01T23:30:07.796Z,100081.23
2018-10-01T23:32:37.894Z,100086.17
2018-10-01T23:35:08.087Z,100089.64
2018-10-01T23:37:38.626Z,100095.72
2018-10-01T23:40:08.568Z,100100.04
2018-10-01T23:42:38.733Z,100097.05
2018-10-01T23:45:09.285Z,100092.70
2018-10-01T23:47:39.248Z,100099.67
2018-10-01T23:50:09.219Z,100111.96
2018-10-01T23:52:39.159Z,100112.30
2018-10-01T23:55:09.707Z,100105.98
2018-10-01T23:57:39.567Z,100103.34
